Mount Vernon, Virginia
Current Conditions -  °F | °C
As of 8:55 PM on Tuesday 21 Oct 2014 (Local Time) from KDAA Reporting Station
Drizzle Drizzle  
Wind Chill: 56°   Ceiling: 5000
Heat Index: 56°   Visibility: 10mi
Dew Point: 52°   Wind: 5mph
Humidity: 87%   Direction: 280°W
Pressure: 29.91"   Gusts: NA
Location:  38.71°N, 77.08°W
Report Text: KDAA 220055Z 28004KT 10SM -DZ FEW014 OVC050 13/11 A2991 RMK A02 RAB0002E0019B0035E0053DZB0000E0002B0053 SLP131 P0000 T01320111
Loading
Personal Weather Stations






























Interactive Weather Map
Tropical Storm Tracking
New forecast layout! Learn more

10-Day Weather Forecast

Advertisements
Track Severe Weather on mobile